Time;durP1;ratioP1;P1;durP2;ratioP2;P2;SDS_P1;SDS_P2;PMS_P1;PMS_P2;Temp;Humidity;BMP_temperature;BMP_pressure;BME280_temperature;BME280_humidity;BME280_pressure;Samples;Min_cycle;Max_cycle;Signal;HPM_P1;HPM_P2
2023/09/12 04:08:57;;;;;;;17.58;8.32;;;;;;;19.03;78.71;100333.03;5606088;31;84401;-57
2023/09/12 04:12:01;;;;;;;13.32;9.52;;;;;;;19.03;78.71;100333.03;5603500;31;33392;-57
2023/09/12 04:15:04;;;;;;;17.83;9.18;;;;;;;18.52;97.17;100340.59;5603112;31;33165;-57
2023/09/12 04:18:06;;;;;;;10.90;8.82;;;;;;;18.47;86.28;100338.09;5603274;31;33264;-57
2023/09/12 04:21:09;;;;;;;13.45;8.00;;;;;;;18.39;91.21;100338.97;5603681;31;33648;-57
2023/09/12 04:24:11;;;;;;;12.25;8.25;;;;;;;18.46;81.80;100333.78;5603171;31;33638;-56
2023/09/12 04:27:14;;;;;;;20.30;8.02;;;;;;;18.54;80.89;100338.34;5603479;31;33314;-57
2023/09/12 04:30:16;;;;;;;14.90;9.10;;;;;;;18.47;83.42;100343.53;5602983;31;34340;-57
2023/09/12 04:33:19;;;;;;;11.55;8.55;;;;;;;18.50;94.18;100343.62;5603259;31;33460;-56
2023/09/12 04:36:21;;;;;;;13.60;8.05;;;;;;;18.43;93.79;100342.59;5589470;31;32470;-57
2023/09/12 04:39:24;;;;;;;13.90;8.55;;;;;;;18.47;84.73;100340.81;5583274;32;33666;-56
2023/09/12 04:42:27;;;;;;;12.95;8.07;;;;;;;18.54;89.60;100355.44;5583447;31;33409;-56
2023/09/12 04:45:29;;;;;;;13.02;8.40;;;;;;;18.51;81.65;100349.88;5583806;31;33601;-56
2023/09/12 04:48:32;;;;;;;15.30;8.20;;;;;;;18.64;80.10;100353.41;5583470;31;33707;-57
2023/09/12 04:51:34;;;;;;;15.07;8.05;;;;;;;18.51;86.97;100356.09;5582871;31;34555;-56
2023/09/12 04:54:38;;;;;;;13.00;8.30;;;;;;;18.66;80.24;100357.38;5582168;31;33579;-56
2023/09/12 04:57:40;;;;;;;17.23;8.15;;;;;;;18.57;96.70;100364.81;5583242;32;34426;-57
2023/09/12 05:00:45;;;;;;;13.70;8.93;;;;;;;18.60;82.30;100363.38;5578049;31;33350;-56
2023/09/12 05:03:47;;;;;;;12.82;8.35;;;;;;;18.64;82.43;100370.53;5582612;32;33689;-57
2023/09/12 05:06:50;;;;;;;14.87;9.35;;;;;;;18.78;97.70;100370.25;5582886;32;33547;-57
2023/09/12 05:09:52;;;;;;;19.30;9.48;;;;;;;18.82;96.00;100373.88;5582449;31;33896;-57
2023/09/12 05:12:55;;;;;;;15.65;8.02;;;;;;;18.75;83.07;100371.72;5579088;32;33587;-57
2023/09/12 05:15:57;;;;;;;15.60;8.60;;;;;;;18.72;85.62;100382.44;5566759;32;34813;-56
2023/09/12 05:19:00;;;;;;;12.93;9.23;;;;;;;18.76;82.67;100369.78;5558411;31;33391;-58
2023/09/12 05:22:03;;;;;;;15.73;8.32;;;;;;;18.89;82.57;100368.69;5561664;32;33795;-56
2023/09/12 05:25:06;;;;;;;20.08;9.38;;;;;;;18.96;89.60;100365.41;5558336;31;33352;-59
2023/09/12 05:28:08;;;;;;;34.25;9.43;;;;;;;18.98;83.68;100366.66;5569104;32;33692;-57
2023/09/12 05:31:11;;;;;;;19.95;11.00;;;;;;;19.09;85.03;100363.50;5566171;32;33588;-58
2023/09/12 05:34:14;;;;;;;22.67;10.55;;;;;;;19.15;81.05;100364.88;5559155;32;33395;-57
2023/09/12 05:37:16;;;;;;;24.20;9.88;;;;;;;19.21;79.50;100375.19;5562976;31;33641;-56
2023/09/12 05:40:19;;;;;;;27.95;10.35;;;;;;;19.28;89.23;100371.91;5561736;32;33555;-56
2023/09/12 05:43:21;;;;;;;18.10;9.75;;;;;;;19.31;82.28;100387.56;5569123;32;34258;-58
2023/09/12 05:46:23;;;;;;;26.17;9.90;;;;;;;19.41;79.25;100380.88;5567737;32;33441;-57
2023/09/12 05:49:26;;;;;;;31.65;11.15;;;;;;;19.54;79.55;100378.94;5558575;31;33746;-58
2023/09/12 05:52:31;;;;;;;58.92;13.02;;;;;;;19.60;78.15;100380.28;5550378;32;33472;-57
2023/09/12 05:55:34;;;;;;;57.10;12.27;;;;;;;19.70;81.83;100391.56;5552210;32;33376;-58
2023/09/12 05:58:41;;;;;;;46.72;10.98;;;;;;;19.79;77.64;100385.97;5555205;32;33654;-58
2023/09/12 06:01:45;;;;;;;35.10;9.23;;;;;;;19.90;79.91;100395.28;5566664;32;33536;-57
2023/09/12 06:04:47;;;;;;;26.48;10.00;;;;;;;20.01;83.42;100387.41;5557065;32;33707;-57
2023/09/12 06:07:50;;;;;;;16.90;9.02;;;;;;;20.07;83.82;100388.78;5555643;32;34405;-56
2023/09/12 06:10:54;;;;;;;21.23;9.52;;;;;;;20.16;74.36;100389.44;5567035;32;34229;-57
2023/09/12 06:13:56;;;;;;;23.42;9.48;;;;;;;20.24;82.03;100386.91;5558285;32;33779;-57
2023/09/12 06:16:59;;;;;;;14.98;9.40;;;;;;;20.32;76.08;100385.97;5556924;32;33616;-57
2023/09/12 06:20:06;;;;;;;25.70;10.35;;;;;;;20.40;73.94;100383.13;5566106;32;32349;-57
2023/09/12 06:23:10;;;;;;;21.40;10.43;;;;;;;20.51;72.92;100388.09;5564154;32;33778;-57
2023/09/12 06:26:12;;;;;;;20.25;9.30;;;;;;;20.55;73.04;100389.75;5567745;32;33701;-58
2023/09/12 06:29:15;;;;;;;30.85;10.73;;;;;;;20.65;78.31;100396.66;5548652;32;33570;-57
2023/09/12 06:32:18;;;;;;;22.75;10.07;;;;;;;20.75;77.33;100396.13;5560025;32;34343;-58
2023/09/12 06:35:20;;;;;;;25.05;10.27;;;;;;;20.89;82.48;100398.44;5564573;32;34348;-57
2023/09/12 06:38:24;;;;;;;36.58;10.82;;;;;;;21.00;80.67;100396.81;5561653;32;33273;-56
2023/09/12 06:41:27;;;;;;;24.30;9.32;;;;;;;21.03;73.80;100395.31;5554648;32;33556;-57
2023/09/12 06:44:29;;;;;;;34.15;11.30;;;;;;;21.14;82.60;100401.03;5559972;32;34327;-57
2023/09/12 06:47:31;;;;;;;20.60;10.13;;;;;;;21.25;77.42;100399.37;5554165;32;34374;-57
2023/09/12 06:50:34;;;;;;;19.48;9.88;;;;;;;21.35;76.88;100396.13;5555947;32;34243;-57
2023/09/12 06:53:37;;;;;;;21.73;9.55;;;;;;;21.42;72.85;100392.78;5566078;32;33713;-57
2023/09/12 06:56:41;;;;;;;17.92;9.32;;;;;;;21.46;71.86;100394.47;5567084;32;34250;-57
2023/09/12 06:59:44;;;;;;;24.83;10.02;;;;;;;21.48;72.76;100407.75;5567650;32;33992;-56
2023/09/12 07:02:46;;;;;;;24.10;10.70;;;;;;;21.51;72.66;100391.47;5560198;32;33777;-57
2023/09/12 07:05:48;;;;;;;19.45;9.85;;;;;;;21.56;71.75;100404.84;5560561;32;33743;-58
2023/09/12 07:08:51;;;;;;;19.67;9.90;;;;;;;21.64;72.00;100405.00;5558269;32;34452;-57
2023/09/12 07:11:53;;;;;;;22.77;10.05;;;;;;;21.72;71.65;100404.00;5567268;32;33494;-58
2023/09/12 07:14:56;;;;;;;16.77;10.45;;;;;;;21.85;78.89;100405.50;5563946;32;33626;-58
2023/09/12 07:17:59;;;;;;;20.92;10.57;;;;;;;21.99;76.52;100400.38;5565602;32;34006;-57
2023/09/12 07:21:04;;;;;;;19.77;10.52;;;;;;;22.03;71.19;100403.16;5561749;32;34361;-57
2023/09/12 07:24:07;;;;;;;32.67;11.73;;;;;;;22.08;70.71;100402.87;5559741;32;33671;-57
2023/09/12 07:27:09;;;;;;;33.42;10.27;;;;;;;22.17;71.95;100408.97;5560961;32;34298;-57
2023/09/12 07:30:12;;;;;;;22.37;11.38;;;;;;;22.28;77.17;100409.16;5567254;32;33555;-57
2023/09/12 07:33:14;;;;;;;18.95;10.18;;;;;;;22.30;72.80;100412.34;5554642;32;33536;-57
2023/09/12 07:36:17;;;;;;;24.20;12.30;;;;;;;22.40;77.93;100414.50;5553415;32;33765;-56
2023/09/12 07:39:19;;;;;;;22.20;10.63;;;;;;;22.56;75.92;100419.13;5554429;32;33602;-57
2023/09/12 07:42:23;;;;;;;22.85;12.40;;;;;;;22.52;73.39;100422.56;5553972;32;33195;-57
2023/09/12 07:45:25;;;;;;;27.75;12.05;;;;;;;22.55;70.71;100414.78;5556910;32;34356;-57
2023/09/12 07:48:28;;;;;;;29.08;13.02;;;;;;;22.60;69.84;100425.44;5554453;32;32249;-57
2023/09/12 07:51:30;;;;;;;22.73;10.35;;;;;;;22.65;69.01;100417.75;5554350;32;34038;-58
2023/09/12 07:54:34;;;;;;;30.33;11.27;;;;;;;22.68;68.95;100414.28;5557608;32;33655;-57
2023/09/12 07:57:36;;;;;;;17.27;9.85;;;;;;;22.79;70.56;100417.22;5563459;32;33606;-58
2023/09/12 08:00:39;;;;;;;17.75;10.25;;;;;;;22.86;70.13;100406.41;5564087;32;33770;-57
2023/09/12 08:03:42;;;;;;;23.90;9.85;;;;;;;22.92;68.88;100415.12;5560258;32;33921;-58
2023/09/12 08:06:45;;;;;;;26.77;10.38;;;;;;;22.93;67.77;100409.31;5559437;32;33704;-57
2023/09/12 08:10:00;;;;;;;19.58;9.57;;;;;;;22.95;67.68;100401.53;5566400;32;34323;-60
2023/09/12 08:13:02;;;;;;;15.43;9.65;;;;;;;23.06;66.19;100400.94;5560374;32;33330;-58
2023/09/12 08:16:05;;;;;;;24.55;10.27;;;;;;;23.08;67.26;100402.16;5562709;32;33532;-57
2023/09/12 08:19:07;;;;;;;25.92;10.50;;;;;;;23.11;64.25;100400.63;5562794;32;33507;-58
2023/09/12 08:22:13;;;;;;;18.90;9.50;;;;;;;23.15;64.52;100404.22;5564597;32;34277;-58
2023/09/12 08:25:15;;;;;;;23.77;10.18;;;;;;;23.20;62.77;100415.63;5562388;32;33701;-57
2023/09/12 08:28:18;;;;;;;22.62;10.30;;;;;;;23.27;62.42;100406.75;5554099;32;33616;-56
2023/09/12 08:31:20;;;;;;;31.58;12.82;;;;;;;23.30;60.99;100402.50;5559554;32;33795;-58
2023/09/12 08:34:23;;;;;;;23.00;10.50;;;;;;;23.37;61.65;100405.34;5558632;31;33778;-57
2023/09/12 08:37:26;;;;;;;18.80;10.63;;;;;;;23.48;63.62;100400.88;5565185;32;33605;-57
2023/09/12 08:40:31;;;;;;;22.60;12.32;;;;;;;23.52;61.63;100401.72;5558828;32;33550;-58
2023/09/12 08:43:33;;;;;;;19.40;11.93;;;;;;;23.54;61.86;100412.28;5559282;32;33676;-57
2023/09/12 08:46:36;;;;;;;30.20;11.07;;;;;;;23.66;63.54;100410.13;5558148;32;33285;-58
2023/09/12 08:49:39;;;;;;;23.60;11.45;;;;;;;23.81;64.95;100402.19;5552564;32;33585;-58
2023/09/12 08:52:43;;;;;;;42.88;12.30;;;;;;;23.80;63.92;100395.88;5555851;32;34461;-57
2023/09/12 08:56:06;;;;;;;26.30;11.73;;;;;;;23.89;64.87;100406.56;5557334;32;33719;-57
2023/09/12 08:59:10;;;;;;;34.10;12.70;;;;;;;23.85;61.47;100397.53;5560546;32;34175;-57
2023/09/12 09:02:12;;;;;;;25.58;11.65;;;;;;;23.94;61.54;100394.50;5562070;32;34323;-58
2023/09/12 09:05:17;;;;;;;25.52;10.90;;;;;;;24.00;60.34;100396.56;5558208;32;33509;-58
2023/09/12 09:08:23;;;;;;;26.48;9.77;;;;;;;24.05;59.31;100400.94;5563093;32;33667;-58
2023/09/12 09:11:27;;;;;;;19.98;8.82;;;;;;;24.08;59.32;100395.50;5560243;31;31749;-57
2023/09/12 09:14:30;;;;;;;17.52;8.85;;;;;;;24.15;57.30;100394.81;5560573;32;33631;-57
2023/09/12 09:17:32;;;;;;;17.48;7.60;;;;;;;24.21;57.36;100390.59;5565653;32;34280;-57
2023/09/12 09:20:38;;;;;;;28.62;9.80;;;;;;;24.28;57.08;100395.34;5561974;32;34529;-58
2023/09/12 09:23:46;;;;;;;17.60;8.73;;;;;;;24.35;57.00;100381.75;5557472;32;34474;-57
2023/09/12 09:26:58;;;;;;;19.87;8.00;;;;;;;24.45;55.89;100385.81;5557818;32;33641;-57
2023/09/12 09:30:03;;;;;;;18.92;8.27;;;;;;;24.55;56.84;100376.91;5557302;32;33682;-57
2023/09/12 09:33:05;;;;;;;12.73;7.72;;;;;;;24.70;55.82;100384.12;5561451;32;33685;-57
2023/09/12 09:36:08;;;;;;;63.20;10.50;;;;;;;24.68;55.82;100388.41;5558810;32;33688;-57
2023/09/12 09:39:12;;;;;;;22.95;8.00;;;;;;;24.84;53.98;100384.25;5559650;32;33577;-57
2023/09/12 09:42:15;;;;;;;14.75;6.75;;;;;;;24.90;54.19;100387.47;5553830;32;33715;-57
2023/09/12 09:45:18;;;;;;;21.98;7.80;;;;;;;24.87;52.01;100381.91;5560347;32;33703;-58
2023/09/12 09:48:23;;;;;;;33.55;8.75;;;;;;;24.99;53.63;100382.44;5554738;32;33635;-58
2023/09/12 09:51:26;;;;;;;29.45;11.07;;;;;;;25.08;54.28;100380.16;5563237;32;33564;-58
2023/09/12 09:54:28;;;;;;;18.12;7.03;;;;;;;25.07;53.72;100378.59;5558068;32;34019;-57
2023/09/12 09:57:36;;;;;;;15.20;7.20;;;;;;;25.08;51.80;100380.16;5553164;32;33575;-57
2023/09/12 10:00:39;;;;;;;28.48;7.30;;;;;;;25.19;50.80;100369.31;5560878;32;34234;-58
2023/09/12 10:03:43;;;;;;;23.33;7.82;;;;;;;25.30;51.55;100369.41;5561565;32;34306;-57
2023/09/12 10:06:46;;;;;;;38.75;8.02;;;;;;;25.42;50.07;100377.31;5556462;32;34425;-57
2023/09/12 10:09:49;;;;;;;31.40;8.02;;;;;;;25.52;49.95;100370.34;5557186;32;34382;-57
2023/09/12 10:12:58;;;;;;;13.88;7.12;;;;;;;25.51;49.98;100368.78;5563497;32;33840;-57
2023/09/12 10:16:04;;;;;;;17.42;6.82;;;;;;;25.56;49.98;100368.41;5560971;32;33609;-57
2023/09/12 10:19:23;;;;;;;13.82;6.30;;;;;;;25.55;50.55;100369.56;5555563;32;33740;-58
2023/09/12 10:22:32;;;;;;;20.15;7.40;;;;;;;25.62;50.31;100358.63;5561463;32;34162;-57
2023/09/12 10:25:36;;;;;;;15.32;6.85;;;;;;;25.68;48.66;100357.12;5556120;32;34409;-57
2023/09/12 10:28:42;;;;;;;16.48;6.93;;;;;;;25.84;47.78;100358.81;5559376;32;33732;-57
2023/09/12 10:31:46;;;;;;;22.83;9.23;;;;;;;25.93;49.36;100354.53;5556779;32;33793;-58
2023/09/12 10:34:51;;;;;;;12.68;6.40;;;;;;;25.91;48.78;100358.84;5558520;32;33692;-58
2023/09/12 10:37:58;;;;;;;13.65;6.55;;;;;;;25.81;46.56;100352.13;5564233;32;33700;-57
2023/09/12 10:41:03;;;;;;;16.17;6.30;;;;;;;25.87;47.27;100352.56;5555780;32;33729;-57
2023/09/12 10:44:11;;;;;;;10.03;5.53;;;;;;;26.01;47.08;100349.84;5561520;32;33674;-58
2023/09/12 10:47:14;;;;;;;16.33;6.72;;;;;;;26.19;46.68;100347.16;5553692;32;33154;-57
2023/09/12 10:50:16;;;;;;;20.70;6.25;;;;;;;26.06;46.51;100340.44;5557677;32;34325;-58
2023/09/12 10:53:24;;;;;;;10.63;5.47;;;;;;;26.08;47.12;100340.88;5555895;32;34354;-57
2023/09/12 10:56:32;;;;;;;16.67;6.18;;;;;;;26.13;45.92;100338.53;5560589;32;34297;-58
2023/09/12 10:59:37;;;;;;;10.30;6.15;;;;;;;26.22;45.60;100343.66;5560990;32;34297;-58
2023/09/12 11:02:40;;;;;;;13.70;7.55;;;;;;;26.33;45.09;100347.25;5564358;32;33930;-58
2023/09/12 11:05:54;;;;;;;20.25;6.45;;;;;;;26.37;44.57;100341.75;5564803;32;32098;-57
2023/09/12 11:09:18;;;;;;;19.23;7.12;;;;;;;26.49;45.42;100344.19;5525997;32;35438;-57
2023/09/12 11:12:36;;;;;;;20.52;8.05;;;;;;;26.76;45.66;100339.13;5521521;32;33612;-57
2023/09/12 11:16:11;;;;;;;50.60;9.30;;;;;;;26.61;44.18;100334.75;5520424;32;33643;-57
2023/09/12 11:19:25;;;;;;;20.33;6.78;;;;;;;26.58;44.97;100325.31;5521388;32;33501;-58
2023/09/12 11:22:31;;;;;;;12.80;7.50;;;;;;;26.58;45.21;100321.78;5526750;32;35066;-58
2023/09/12 11:25:35;;;;;;;16.52;6.65;;;;;;;26.73;44.57;100320.66;5520963;32;33850;-57
2023/09/12 11:28:39;;;;;;;13.77;6.20;;;;;;;26.63;44.54;100316.69;5526275;32;33604;-57
2023/09/12 11:31:53;;;;;;;16.75;6.93;;;;;;;26.85;45.33;100313.97;5526194;32;34374;-57
2023/09/12 11:34:55;;;;;;;18.25;7.80;;;;;;;26.93;43.92;100310.81;5522122;32;33235;-58
2023/09/12 11:37:59;;;;;;;18.10;6.07;;;;;;;26.80;43.83;100308.88;5520515;32;33636;-58
2023/09/12 11:41:02;;;;;;;12.95;6.22;;;;;;;26.83;43.55;100311.63;5517940;32;34412;-58
2023/09/12 11:44:06;;;;;;;18.27;7.30;;;;;;;26.77;43.33;100302.19;5519435;32;35916;-57
2023/09/12 11:47:10;;;;;;;17.00;6.13;;;;;;;27.01;42.81;100297.84;5544935;32;33596;-57
2023/09/12 11:50:35;;;;;;;20.45;5.93;;;;;;;27.03;42.24;100301.00;5536737;32;33747;-58
2023/09/12 11:53:37;;;;;;;22.75;6.03;;;;;;;27.00;42.67;100298.25;5520635;32;33947;-57
2023/09/12 11:56:41;;;;;;;19.75;6.40;;;;;;;26.91;42.08;100293.12;5527922;32;33642;-57
2023/09/12 11:59:48;;;;;;;18.73;6.40;;;;;;;27.06;42.61;100294.72;5527966;32;34237;-57
2023/09/12 12:02:52;;;;;;;20.50;6.03;;;;;;;27.19;41.96;100288.84;5528023;32;34405;-57
2023/09/12 12:05:55;;;;;;;19.70;7.10;;;;;;;27.26;42.25;100288.81;5526849;32;33151;-58
2023/09/12 12:08:58;;;;;;;18.27;8.20;;;;;;;27.24;41.61;100288.44;5546155;32;34915;-57
2023/09/12 12:12:12;;;;;;;19.27;7.47;;;;;;;27.35;42.01;100290.00;5548070;32;32912;-57
2023/09/12 12:15:14;;;;;;;21.98;6.50;;;;;;;27.23;41.52;100281.34;5548642;32;34434;-58
2023/09/12 12:18:17;;;;;;;19.77;5.70;;;;;;;27.15;41.51;100277.81;5548397;32;33639;-57
2023/09/12 12:21:20;;;;;;;23.00;5.80;;;;;;;27.15;41.32;100286.06;5546462;32;33562;-57
2023/09/12 12:24:23;;;;;;;15.05;5.47;;;;;;;27.27;41.65;100284.87;5547886;32;34076;-57
2023/09/12 12:27:27;;;;;;;34.53;6.53;;;;;;;27.15;41.06;100275.06;5545526;32;34318;-57
2023/09/12 12:30:35;;;;;;;15.95;5.87;;;;;;;27.26;41.06;100275.06;5549857;32;34319;-58
2023/09/12 12:33:38;;;;;;;24.48;6.30;;;;;;;27.40;39.55;100266.75;5542975;32;33728;-57
2023/09/12 12:37:00;;;;;;;21.87;7.12;;;;;;;27.52;41.10;100269.09;5547652;32;33737;-57
2023/09/12 12:40:04;;;;;;;32.97;5.95;;;;;;;27.51;40.06;100263.97;5542334;32;33803;-57
2023/09/12 12:43:16;;;;;;;15.45;5.43;;;;;;;27.48;40.14;100251.00;5543303;32;33637;-57
2023/09/12 12:46:21;;;;;;;18.77;5.78;;;;;;;27.36;40.46;100260.50;5550389;32;33632;-58
2023/09/12 12:49:24;;;;;;;17.48;4.90;;;;;;;27.50;39.82;100252.19;5550075;32;33658;-57
2023/09/12 12:52:26;;;;;;;34.75;6.55;;;;;;;27.63;39.50;100239.53;5550372;32;34319;-58
2023/09/12 12:55:29;;;;;;;12.75;4.95;;;;;;;27.52;40.47;100240.78;5550270;32;33205;-57
2023/09/12 12:58:31;;;;;;;16.48;5.78;;;;;;;27.44;40.40;100241.97;5550357;32;33385;-57
2023/09/12 13:01:38;;;;;;;14.87;5.00;;;;;;;27.37;40.01;100243.56;5550770;32;34338;-58
2023/09/12 13:04:41;;;;;;;17.52;5.25;;;;;;;27.47;40.56;100246.69;5550675;32;34376;-57
2023/09/12 13:07:43;;;;;;;12.23;5.10;;;;;;;27.53;39.57;100245.88;5562220;32;33889;-57
2023/09/12 13:10:46;;;;;;;15.43;5.85;;;;;;;27.56;38.80;100239.56;5567852;32;33899;-57
2023/09/12 13:13:49;;;;;;;18.08;5.75;;;;;;;27.57;39.36;100241.13;5565452;32;34312;-58
2023/09/12 13:16:51;;;;;;;12.77;5.07;;;;;;;27.57;38.95;100249.41;5566120;32;34301;-57
2023/09/12 13:19:54;;;;;;;13.82;5.87;;;;;;;27.46;39.52;100231.38;5564836;32;34730;-57
2023/09/12 13:22:56;;;;;;;15.48;5.05;;;;;;;27.47;39.89;100241.19;5570041;32;33914;-58
2023/09/12 13:25:58;;;;;;;19.67;6.22;;;;;;;27.46;39.73;100242.38;5570025;32;33713;-57
2023/09/12 13:29:00;;;;;;;36.83;7.45;;;;;;;27.57;41.00;100232.88;5567643;32;33706;-58
2023/09/12 13:32:03;;;;;;;20.25;5.60;;;;;;;27.60;41.28;100223.81;5563903;32;33552;-58
2023/09/12 13:35:07;;;;;;;14.20;4.95;;;;;;;27.56;40.02;100222.28;5568306;31;34157;-58
2023/09/12 13:38:11;;;;;;;235.77;25.75;;;;;;;27.74;39.83;100230.44;5568083;32;34386;-58
2023/09/12 13:41:14;;;;;;;31.73;7.25;;;;;;;27.69;39.47;100225.38;5565115;32;33686;-57
2023/09/12 13:44:17;;;;;;;20.88;5.65;;;;;;;27.63;39.89;100223.03;5569617;32;32891;-57
2023/09/12 13:47:22;;;;;;;25.23;5.70;;;;;;;27.59;40.29;100219.50;5567815;32;34376;-58
2023/09/12 13:50:27;;;;;;;24.40;6.30;;;;;;;27.61;40.83;100225.38;5569130;32;34104;-58
2023/09/12 13:53:30;;;;;;;24.73;6.60;;;;;;;27.61;40.56;100221.84;5561321;32;33956;-57
2023/09/12 13:56:32;;;;;;;25.65;6.70;;;;;;;27.61;39.97;100214.38;5568757;32;34505;-58
2023/09/12 13:59:35;;;;;;;82.37;11.90;;;;;;;27.64;40.09;100216.31;5569512;32;33683;-57
2023/09/12 14:02:46;;;;;;;32.03;6.40;;;;;;;27.81;39.38;100216.66;5568566;32;33671;-57
2023/09/12 14:05:49;;;;;;;31.27;5.85;;;;;;;27.55;39.61;100221.50;5569804;32;33281;-57
2023/09/12 14:08:53;;;;;;;17.62;6.45;;;;;;;27.62;39.49;100215.19;5569486;32;34257;-58
2023/09/12 14:11:56;;;;;;;16.45;5.20;;;;;;;27.52;38.90;100216.00;5569390;32;34334;-58
2023/09/12 14:14:59;;;;;;;16.75;5.03;;;;;;;27.41;38.94;100207.75;5569636;32;34093;-57
2023/09/12 14:18:10;;;;;;;89.20;14.00;;;;;;;27.42;38.86;100212.09;5569803;32;34339;-57
2023/09/12 14:21:14;;;;;;;24.92;6.15;;;;;;;27.45;39.94;100213.25;5569713;32;33752;-57
2023/09/12 14:24:17;;;;;;;18.27;5.25;;;;;;;27.41;39.90;100216.03;5569354;32;33793;-57
2023/09/12 14:27:22;;;;;;;17.75;6.03;;;;;;;27.50;39.00;100213.63;5569396;32;33646;-58
2023/09/12 14:30:34;;;;;;;25.02;6.43;;;;;;;27.63;38.59;100211.22;5569221;32;34486;-57
2023/09/12 14:33:37;;;;;;;22.73;5.75;;;;;;;27.54;38.95;100208.91;5569253;32;34037;-57
2023/09/12 14:36:39;;;;;;;26.52;8.75;;;;;;;27.54;39.44;100208.12;5569202;32;33676;-57
2023/09/12 14:39:41;;;;;;;36.40;8.05;;;;;;;27.58;41.05;100204.19;5569457;32;33882;-57
2023/09/12 14:42:44;;;;;;;14.95;5.22;;;;;;;27.54;40.01;100206.13;5569398;32;33672;-57
2023/09/12 14:45:46;;;;;;;143.52;17.58;;;;;;;27.55;39.42;100199.47;5569253;32;33716;-57
2023/09/12 14:48:49;;;;;;;151.02;20.25;;;;;;;27.51;39.89;100198.69;5568994;32;34234;-57
2023/09/12 14:52:02;;;;;;;81.30;11.95;;;;;;;27.52;40.23;100202.25;5567447;32;34346;-57
2023/09/12 14:55:10;;;;;;;95.53;13.40;;;;;;;27.44;40.81;100201.47;5569020;32;34100;-57
2023/09/12 14:58:13;;;;;;;242.80;27.65;;;;;;;27.51;39.03;100203.41;5569295;32;33744;-57
2023/09/12 15:01:15;;;;;;;45.22;7.20;;;;;;;27.40;39.33;100211.72;5569578;32;33636;-57
2023/09/12 15:04:18;;;;;;;42.30;6.72;;;;;;;27.40;39.10;100209.75;5569093;32;34356;-57
2023/09/12 15:07:21;;;;;;;20.37;5.78;;;;;;;27.41;39.31;100214.06;5569335;32;34329;-57
